sensor_id;sensor_type;location;lat;lon;timestamp;pressure;altitude;pressure_sealevel;temperature;humidity
22047;BME280;11187;49.412;20.956;2023-07-09T00:00:21;95635.53;;;13.44;93.14
22047;BME280;11187;49.412;20.956;2023-07-09T00:02:55;95625.41;;;13.38;93.52
22047;BME280;11187;49.412;20.956;2023-07-09T00:05:42;95633.13;;;13.36;93.32
22047;BME280;11187;49.412;20.956;2023-07-09T00:08:27;95632.31;;;13.34;93.63
22047;BME280;11187;49.412;20.956;2023-07-09T00:11:21;95631.56;;;13.29;93.56
22047;BME280;11187;49.412;20.956;2023-07-09T00:14:16;95629.03;;;13.26;93.86
22047;BME280;11187;49.412;20.956;2023-07-09T00:16:49;95633.28;;;13.27;93.96
22047;BME280;11187;49.412;20.956;2023-07-09T00:19:42;95631.63;;;13.25;94.13
22047;BME280;11187;49.412;20.956;2023-07-09T00:22:38;95636.84;;;13.22;94.34
22047;BME280;11187;49.412;20.956;2023-07-09T00:25:43;95630.91;;;13.18;94.75
22047;BME280;11187;49.412;20.956;2023-07-09T00:28:18;95627.50;;;13.18;94.89
22047;BME280;11187;49.412;20.956;2023-07-09T00:31:14;95627.53;;;13.14;94.59
22047;BME280;11187;49.412;20.956;2023-07-09T00:33:48;95631.03;;;13.12;95.10
22047;BME280;11187;49.412;20.956;2023-07-09T00:36:36;95619.97;;;13.08;95.43
22047;BME280;11187;49.412;20.956;2023-07-09T00:39:16;95617.41;;;13.08;95.43
22047;BME280;11187;49.412;20.956;2023-07-09T00:42:03;95622.59;;;13.05;95.79
22047;BME280;11187;49.412;20.956;2023-07-09T00:44:36;95611.59;;;12.99;95.72
22047;BME280;11187;49.412;20.956;2023-07-09T00:50:15;95624.53;;;12.94;96.02
22047;BME280;11187;49.412;20.956;2023-07-09T00:53:21;95620.28;;;12.93;96.31
22047;BME280;11187;49.412;20.956;2023-07-09T00:56:05;95623.66;;;12.95;96.19
22047;BME280;11187;49.412;20.956;2023-07-09T00:58:55;95622.03;;;12.91;96.15
22047;BME280;11187;49.412;20.956;2023-07-09T01:01:29;95620.41;;;12.85;96.07
22047;BME280;11187;49.412;20.956;2023-07-09T01:04:16;95617.91;;;12.82;96.55
22047;BME280;11187;49.412;20.956;2023-07-09T01:06:55;95623.97;;;12.78;96.55
22047;BME280;11187;49.412;20.956;2023-07-09T01:09:43;95623.22;;;12.73;97.23
22047;BME280;11187;49.412;20.956;2023-07-09T01:12:18;95620.75;;;12.67;97.03
22047;BME280;11187;49.412;20.956;2023-07-09T01:15:14;95627.63;;;12.66;97.25
22047;BME280;11187;49.412;20.956;2023-07-09T01:17:48;95628.47;;;12.67;97.30
22047;BME280;11187;49.412;20.956;2023-07-09T01:20:35;95628.44;;;12.70;97.02
22047;BME280;11187;49.412;20.956;2023-07-09T01:23:08;95626.69;;;12.70;97.46
22047;BME280;11187;49.412;20.956;2023-07-09T01:26:03;95624.19;;;12.67;97.17
22047;BME280;11187;49.412;20.956;2023-07-09T01:28:36;95630.28;;;12.60;97.24
22047;BME280;11187;49.412;20.956;2023-07-09T01:31:24;95626.97;;;12.55;97.57
22047;BME280;11187;49.412;20.956;2023-07-09T01:34:00;95626.16;;;12.53;97.54
22047;BME280;11187;49.412;20.956;2023-07-09T01:36:54;95619.34;;;12.50;97.99
22047;BME280;11187;49.412;20.956;2023-07-09T01:39:27;95625.38;;;12.48;97.71
22047;BME280;11187;49.412;20.956;2023-07-09T01:42:17;95629.75;;;12.43;98.19
22047;BME280;11187;49.412;20.956;2023-07-09T01:44:52;95630.66;;;12.40;98.37
22047;BME280;11187;49.412;20.956;2023-07-09T01:47:49;95630.75;;;12.36;98.56
22047;BME280;11187;49.412;20.956;2023-07-09T01:50:23;95622.22;;;12.33;98.54
22047;BME280;11187;49.412;20.956;2023-07-09T01:53:20;95626.44;;;12.36;98.64
22047;BME280;11187;49.412;20.956;2023-07-09T01:55:56;95623.88;;;12.36;98.04
22047;BME280;11187;49.412;20.956;2023-07-09T01:58:43;95628.19;;;12.34;98.34
22047;BME280;11187;49.412;20.956;2023-07-09T02:01:16;95623.88;;;12.36;98.16
22047;BME280;11187;49.412;20.956;2023-07-09T02:04:06;95625.66;;;12.32;98.34
22047;BME280;11187;49.412;20.956;2023-07-09T02:06:39;95627.44;;;12.29;98.48
22047;BME280;11187;49.412;20.956;2023-07-09T02:09:33;95626.59;;;12.27;98.46
22047;BME280;11187;49.412;20.956;2023-07-09T02:12:27;95626.63;;;12.24;98.80
22047;BME280;11187;49.412;20.956;2023-07-09T02:15:00;95630.06;;;12.24;99.23
22047;BME280;11187;49.412;20.956;2023-07-09T02:17:47;95627.50;;;12.24;99.32
22047;BME280;11187;49.412;20.956;2023-07-09T02:20:21;95630.09;;;12.23;99.31
22047;BME280;11187;49.412;20.956;2023-07-09T02:23:08;95627.59;;;12.18;99.00
22047;BME280;11187;49.412;20.956;2023-07-09T02:25:41;95628.47;;;12.17;99.35
22047;BME280;11187;49.412;20.956;2023-07-09T02:28:35;95627.69;;;12.12;99.37
22047;BME280;11187;49.412;20.956;2023-07-09T02:31:29;95632.91;;;12.07;99.37
22047;BME280;11187;49.412;20.956;2023-07-09T02:34:27;95640.66;;;12.04;99.73
22047;BME280;11187;49.412;20.956;2023-07-09T02:37:24;95638.09;;;12.06;99.77
22047;BME280;11187;49.412;20.956;2023-07-09T02:39:57;95639.75;;;12.07;99.51
22047;BME280;11187;49.412;20.956;2023-07-09T02:42:51;95645.78;;;12.06;99.40
22047;BME280;11187;49.412;20.956;2023-07-09T02:45:24;95642.38;;;12.04;99.84
22047;BME280;11187;49.412;20.956;2023-07-09T02:48:11;95641.50;;;12.03;100.00
22047;BME280;11187;49.412;20.956;2023-07-09T02:50:44;95640.69;;;12.03;99.57
22047;BME280;11187;49.412;20.956;2023-07-09T02:53:31;95643.31;;;11.98;99.51
22047;BME280;11187;49.412;20.956;2023-07-09T02:56:04;95640.88;;;11.90;100.00
22047;BME280;11187;49.412;20.956;2023-07-09T02:58:51;95650.28;;;11.90;100.00
22047;BME280;11187;49.412;20.956;2023-07-09T03:01:24;95641.72;;;11.89;100.00
22047;BME280;11187;49.412;20.956;2023-07-09T03:04:14;95645.19;;;11.88;100.00
22047;BME280;11187;49.412;20.956;2023-07-09T03:06:48;95652.00;;;11.86;100.00
22047;BME280;11187;49.412;20.956;2023-07-09T03:09:42;95658.91;;;11.83;100.00
22047;BME280;11187;49.412;20.956;2023-07-09T03:12:15;95655.53;;;11.79;100.00
22047;BME280;11187;49.412;20.956;2023-07-09T03:15:09;95666.66;;;11.78;100.00
22047;BME280;11187;49.412;20.956;2023-07-09T03:17:42;95668.34;;;11.81;100.00
22047;BME280;11187;49.412;20.956;2023-07-09T03:20:29;95667.47;;;11.83;100.00
22047;BME280;11187;49.412;20.956;2023-07-09T03:23:02;95669.16;;;11.84;100.00
22047;BME280;11187;49.412;20.956;2023-07-09T03:25:49;95667.41;;;11.86;100.00
22047;BME280;11187;49.412;20.956;2023-07-09T03:28:23;95668.25;;;11.87;100.00
22047;BME280;11187;49.412;20.956;2023-07-09T03:31:17;95670.81;;;11.87;100.00
22047;BME280;11187;49.412;20.956;2023-07-09T03:33:51;95665.72;;;11.88;100.00
22047;BME280;11187;49.412;20.956;2023-07-09T03:36:45;95662.25;;;11.91;100.00
22047;BME280;11187;49.412;20.956;2023-07-09T03:39:18;95657.09;;;11.93;100.00
22047;BME280;11187;49.412;20.956;2023-07-09T03:42:05;95662.22;;;11.93;100.00
22047;BME280;11187;49.412;20.956;2023-07-09T03:44:38;95657.94;;;11.91;100.00
22047;BME280;11187;49.412;20.956;2023-07-09T03:47:26;95663.06;;;11.93;100.00
22047;BME280;11187;49.412;20.956;2023-07-09T03:49:59;95657.09;;;11.93;100.00
22047;BME280;11187;49.412;20.956;2023-07-09T03:52:53;95659.66;;;11.93;100.00
22047;BME280;11187;49.412;20.956;2023-07-09T03:55:26;95657.09;;;11.93;100.00
22047;BME280;11187;49.412;20.956;2023-07-09T03:58:20;95663.06;;;11.93;100.00
22047;BME280;11187;49.412;20.956;2023-07-09T04:01:14;95656.22;;;11.94;100.00
22047;BME280;11187;49.412;20.956;2023-07-09T04:03:49;95656.19;;;11.95;100.00
22047;BME280;11187;49.412;20.956;2023-07-09T04:06:36;95657.06;;;11.94;100.00
22047;BME280;11187;49.412;20.956;2023-07-09T04:09:09;95653.59;;;11.97;100.00
22047;BME280;11187;49.412;20.956;2023-07-09T04:11:56;95653.50;;;12.03;100.00
22047;BME280;11187;49.412;20.956;2023-07-09T04:14:29;95655.16;;;12.07;100.00
22047;BME280;11187;49.412;20.956;2023-07-09T04:17:16;95659.41;;;12.08;100.00
22047;BME280;11187;49.412;20.956;2023-07-09T04:19:50;95656.00;;;12.07;100.00
22047;BME280;11187;49.412;20.956;2023-07-09T04:22:37;95659.41;;;12.09;100.00
22047;BME280;11187;49.412;20.956;2023-07-09T04:25:11;95654.19;;;12.14;100.00
22047;BME280;11187;49.412;20.956;2023-07-09T04:27:58;95660.97;;;12.20;100.00
22047;BME280;11187;49.412;20.956;2023-07-09T04:30:32;95661.66;;;12.29;100.00
22047;BME280;11187;49.412;20.956;2023-07-09T04:33:19;95667.44;;;12.42;100.00
22047;BME280;11187;49.412;20.956;2023-07-09T04:35:53;95663.75;;;12.57;100.00
22047;BME280;11187;49.412;20.956;2023-07-09T04:38:47;95664.31;;;12.74;100.00
22047;BME280;11187;49.412;20.956;2023-07-09T04:41:20;95667.38;;;12.92;100.00
22047;BME280;11187;49.412;20.956;2023-07-09T04:44:07;95666.16;;;13.13;100.00
22047;BME280;11187;49.412;20.956;2023-07-09T04:46:40;95664.09;;;13.30;100.00
22047;BME280;11187;49.412;20.956;2023-07-09T04:49:36;95661.16;;;13.49;100.00
22047;BME280;11187;49.412;20.956;2023-07-09T04:52:09;95659.09;;;13.66;100.00
22047;BME280;11187;49.412;20.956;2023-07-09T04:55:04;95659.56;;;13.84;100.00
22047;BME280;11187;49.412;20.956;2023-07-09T04:57:58;95666.91;;;14.00;100.00
22047;BME280;11187;49.412;20.956;2023-07-09T05:00:31;95673.38;;;14.17;99.73
22047;BME280;11187;49.412;20.956;2023-07-09T05:03:19;95665.34;;;14.31;99.29
22047;BME280;11187;49.412;20.956;2023-07-09T05:05:52;95664.94;;;14.46;98.68
22047;BME280;11187;49.412;20.956;2023-07-09T05:08:46;95667.19;;;14.61;98.10
22047;BME280;11187;49.412;20.956;2023-07-09T05:11:40;95660.75;;;14.78;96.99
22047;BME280;11187;49.412;20.956;2023-07-09T05:14:13;95652.63;;;14.92;97.39
22047;BME280;11187;49.412;20.956;2023-07-09T05:17:00;95663.44;;;15.06;97.38
22047;BME280;11187;49.412;20.956;2023-07-09T05:19:33;95669.06;;;15.20;96.77
22047;BME280;11187;49.412;20.956;2023-07-09T05:22:27;95667.75;;;15.37;95.81
22047;BME280;11187;49.412;20.956;2023-07-09T05:25:00;95653.50;;;15.53;95.81
22047;BME280;11187;49.412;20.956;2023-07-09T05:27:47;95665.09;;;15.70;94.39
22047;BME280;11187;49.412;20.956;2023-07-09T05:30:20;95659.53;;;15.83;94.34
22047;BME280;11187;49.412;20.956;2023-07-09T05:33:07;95665.16;;;15.96;94.04
22047;BME280;11187;49.412;20.956;2023-07-09T05:35:43;95663.06;;;16.09;93.31
22047;BME280;11187;49.412;20.956;2023-07-09T05:38:30;95664.31;;;16.24;93.20
22047;BME280;11187;49.412;20.956;2023-07-09T05:41:03;95669.09;;;16.36;92.46
22047;BME280;11187;49.412;20.956;2023-07-09T05:43:57;95657.41;;;16.51;91.94
22047;BME280;11187;49.412;20.956;2023-07-09T05:46:34;95660.41;;;16.64;91.74
22047;BME280;11187;49.412;20.956;2023-07-09T05:49:28;95653.88;;;16.80;92.09
22047;BME280;11187;49.412;20.956;2023-07-09T05:52:23;95664.59;;;16.95;91.81
22047;BME280;11187;49.412;20.956;2023-07-09T05:54:58;95664.94;;;17.09;90.56
22047;BME280;11187;49.412;20.956;2023-07-09T05:57:53;95656.81;;;17.20;90.03
22047;BME280;11187;49.412;20.956;2023-07-09T06:00:26;95660.56;;;17.35;89.96
22047;BME280;11187;49.412;20.956;2023-07-09T06:03:21;95657.47;;;17.48;90.20
22047;BME280;11187;49.412;20.956;2023-07-09T06:05:55;95663.84;;;17.63;90.69
22047;BME280;11187;49.412;20.956;2023-07-09T06:08:50;95658.19;;;17.75;89.18
22047;BME280;11187;49.412;20.956;2023-07-09T06:11:23;95657.69;;;17.89;89.73
22047;BME280;11187;49.412;20.956;2023-07-09T06:14:17;95661.47;;;18.04;88.27
22047;BME280;11187;49.412;20.956;2023-07-09T06:17:11;95662.63;;;18.19;88.50
22047;BME280;11187;49.412;20.956;2023-07-09T06:20:05;95656.09;;;18.31;88.04
22047;BME280;11187;49.412;20.956;2023-07-09T06:22:38;95652.94;;;18.45;87.12
22047;BME280;11187;49.412;20.956;2023-07-09T06:25:32;95653.22;;;18.59;86.87
22047;BME280;11187;49.412;20.956;2023-07-09T06:28:27;95651.63;;;18.77;86.14
22047;BME280;11187;49.412;20.956;2023-07-09T06:31:21;95653.66;;;18.91;85.93
22047;BME280;11187;49.412;20.956;2023-07-09T06:33:54;95657.22;;;19.09;87.01
22047;BME280;11187;49.412;20.956;2023-07-09T06:36:48;95640.25;;;19.20;87.09
22047;BME280;11187;49.412;20.956;2023-07-09T06:39:21;95646.75;;;19.31;86.57
22047;BME280;11187;49.412;20.956;2023-07-09T06:42:08;95646.25;;;19.41;85.04
22047;BME280;11187;49.412;20.956;2023-07-09T06:44:41;95646.47;;;19.56;84.04
22047;BME280;11187;49.412;20.956;2023-07-09T06:47:35;95649.16;;;19.73;84.16
22047;BME280;11187;49.412;20.956;2023-07-09T06:50:29;95635.63;;;19.86;84.23
22047;BME280;11187;49.412;20.956;2023-07-09T06:53:05;95642.84;;;19.98;84.08
22047;BME280;11187;49.412;20.956;2023-07-09T06:55:52;95643.16;;;20.09;83.77
22047;BME280;11187;49.412;20.956;2023-07-09T06:58:30;95640.69;;;20.25;83.45
22047;BME280;11187;49.412;20.956;2023-07-09T07:01:25;95634.13;;;20.35;83.92
22047;BME280;11187;49.412;20.956;2023-07-09T07:04:19;95635.50;;;20.42;83.74
22047;BME280;11187;49.412;20.956;2023-07-09T07:06:52;95630.03;;;20.49;84.29
22047;BME280;11187;49.412;20.956;2023-07-09T07:09:39;95625.50;;;20.52;82.98
22047;BME280;11187;49.412;20.956;2023-07-09T07:12:28;95630.25;;;20.61;83.05
22047;BME280;11187;49.412;20.956;2023-07-09T07:15:22;95622.53;;;20.77;82.38
22047;BME280;11187;49.412;20.956;2023-07-09T07:17:55;95619.22;;;20.91;81.74
22047;BME280;11187;49.412;20.956;2023-07-09T07:20:49;95624.72;;;21.02;80.88
22047;BME280;11187;49.412;20.956;2023-07-09T07:23:43;95623.03;;;21.19;79.26
22047;BME280;11187;49.412;20.956;2023-07-09T07:26:19;95615.16;;;21.36;80.10
22047;BME280;11187;49.412;20.956;2023-07-09T07:29:06;95609.41;;;21.47;79.39
22047;BME280;11187;49.412;20.956;2023-07-09T07:31:39;95612.03;;;21.63;78.13
22047;BME280;11187;49.412;20.956;2023-07-09T07:34:33;95612.94;;;21.78;78.60
22047;BME280;11187;49.412;20.956;2023-07-09T07:37:27;95610.44;;;21.92;79.44
22047;BME280;11187;49.412;20.956;2023-07-09T07:40:01;95610.94;;;21.99;79.74
22047;BME280;11187;49.412;20.956;2023-07-09T07:42:55;95609.50;;;22.09;78.80
22047;BME280;11187;49.412;20.956;2023-07-09T07:45:28;95610.44;;;22.24;79.23
22047;BME280;11187;49.412;20.956;2023-07-09T07:48:22;95607.13;;;22.36;79.60
22047;BME280;11187;49.412;20.956;2023-07-09T07:51:03;95605.75;;;22.45;78.38
22047;BME280;11187;49.412;20.956;2023-07-09T07:53:52;95606.81;;;22.57;78.04
22047;BME280;11187;49.412;20.956;2023-07-09T07:56:25;95607.72;;;22.71;78.24
22047;BME280;11187;49.412;20.956;2023-07-09T07:59:20;95606.44;;;22.93;75.60
22047;BME280;11187;49.412;20.956;2023-07-09T08:01:53;95601.00;;;23.12;73.88
22047;BME280;11187;49.412;20.956;2023-07-09T08:04:47;95604.44;;;23.27;73.43
22047;BME280;11187;49.412;20.956;2023-07-09T08:07:41;95598.19;;;23.44;74.27
22047;BME280;11187;49.412;20.956;2023-07-09T08:10:35;95599.50;;;23.51;73.59
22047;BME280;11187;49.412;20.956;2023-07-09T08:13:29;95598.91;;;23.60;72.76
22047;BME280;11187;49.412;20.956;2023-07-09T08:16:23;95595.63;;;23.71;71.02
22047;BME280;11187;49.412;20.956;2023-07-09T08:19:19;95600.31;;;23.80;68.59
22047;BME280;11187;49.412;20.956;2023-07-09T08:22:14;95594.59;;;23.88;66.81
22047;BME280;11187;49.412;20.956;2023-07-09T08:25:08;95600.66;;;23.88;65.46
22047;BME280;11187;49.412;20.956;2023-07-09T08:28:02;95610.28;;;23.88;63.73
22047;BME280;11187;49.412;20.956;2023-07-09T08:30:36;95609.03;;;24.08;57.17
22047;BME280;11187;49.412;20.956;2023-07-09T08:33:23;95608.03;;;24.23;57.82
22047;BME280;11187;49.412;20.956;2023-07-09T08:35:57;95604.47;;;24.24;58.60
22047;BME280;11187;49.412;20.956;2023-07-09T08:38:51;95602.28;;;24.31;55.70
22047;BME280;11187;49.412;20.956;2023-07-09T08:41:45;95610.34;;;24.28;55.73
22047;BME280;11187;49.412;20.956;2023-07-09T08:47:44;95612.25;;;24.38;54.77
22047;BME280;11187;49.412;20.956;2023-07-09T08:50:54;95607.75;;;24.55;54.31
22047;BME280;11187;49.412;20.956;2023-07-09T08:53:58;95611.94;;;24.43;54.62
22047;BME280;11187;49.412;20.956;2023-07-09T08:56:46;95603.88;;;24.33;52.73
22047;BME280;11187;49.412;20.956;2023-07-09T08:59:20;95603.13;;;24.31;55.12
22047;BME280;11187;49.412;20.956;2023-07-09T09:02:27;95608.66;;;24.27;53.36
22047;BME280;11187;49.412;20.956;2023-07-09T09:05:03;95605.31;;;24.25;54.18
22047;BME280;11187;49.412;20.956;2023-07-09T09:08:03;95607.38;;;24.20;53.50
22047;BME280;11187;49.412;20.956;2023-07-09T09:10:52;95604.56;;;24.23;52.41
22047;BME280;11187;49.412;20.956;2023-07-09T09:13:42;95593.25;;;24.22;54.44
22047;BME280;11187;49.412;20.956;2023-07-09T09:16:24;95598.28;;;24.25;54.77
22047;BME280;11187;49.412;20.956;2023-07-09T09:19:32;95603.47;;;24.39;52.87
22047;BME280;11187;49.412;20.956;2023-07-09T09:22:11;95610.19;;;24.44;52.13
22047;BME280;11187;49.412;20.956;2023-07-09T09:25:09;95600.38;;;24.47;54.99
22047;BME280;11187;49.412;20.956;2023-07-09T09:27:45;95600.41;;;24.60;52.66
22047;BME280;11187;49.412;20.956;2023-07-09T09:30:32;95605.13;;;24.68;51.46
22047;BME280;11187;49.412;20.956;2023-07-09T09:33:10;95613.06;;;24.66;51.75
22047;BME280;11187;49.412;20.956;2023-07-09T09:36:04;95607.44;;;24.59;50.02
22047;BME280;11187;49.412;20.956;2023-07-09T09:39:01;95598.94;;;24.56;51.94
22047;BME280;11187;49.412;20.956;2023-07-09T09:41:36;95603.22;;;24.57;52.47
22047;BME280;11187;49.412;20.956;2023-07-09T09:44:27;95600.72;;;24.55;53.66
22047;BME280;11187;49.412;20.956;2023-07-09T09:47:00;95598.31;;;24.65;52.68
22047;BME280;11187;49.412;20.956;2023-07-09T09:49:47;95596.88;;;24.74;50.67
22047;BME280;11187;49.412;20.956;2023-07-09T09:52:26;95597.63;;;24.76;52.70
22047;BME280;11187;49.412;20.956;2023-07-09T09:55:20;95590.28;;;24.81;52.06
22047;BME280;11187;49.412;20.956;2023-07-09T09:57:55;95599.72;;;24.96;50.80
22047;BME280;11187;49.412;20.956;2023-07-09T10:00:51;95606.31;;;25.02;51.84
22047;BME280;11187;49.412;20.956;2023-07-09T10:03:51;95596.56;;;25.04;51.02
22047;BME280;11187;49.412;20.956;2023-07-09T10:07:01;95591.75;;;24.98;51.95
22047;BME280;11187;49.412;20.956;2023-07-09T10:09:59;95602.44;;;24.95;52.94
22047;BME280;11187;49.412;20.956;2023-07-09T10:15:39;95606.31;;;24.76;51.46
22047;BME280;11187;49.412;20.956;2023-07-09T10:18:54;95591.44;;;24.64;53.66
22047;BME280;11187;49.412;20.956;2023-07-09T10:22:13;95590.88;;;24.59;53.00
22047;BME280;11187;49.412;20.956;2023-07-09T10:25:16;95589.41;;;24.55;52.54
22047;BME280;11187;49.412;20.956;2023-07-09T10:31:41;95587.22;;;24.74;51.33
22047;BME280;11187;49.412;20.956;2023-07-09T10:37:21;95588.94;;;24.75;53.02
22047;BME280;11187;49.412;20.956;2023-07-09T10:40:46;95587.22;;;24.74;52.58
22047;BME280;11187;49.412;20.956;2023-07-09T10:43:31;95575.09;;;24.73;54.59
22047;BME280;11187;49.412;20.956;2023-07-09T10:46:34;95574.78;;;24.78;54.59
22047;BME280;11187;49.412;20.956;2023-07-09T10:49:12;95572.78;;;24.82;53.84
22047;BME280;11187;49.412;20.956;2023-07-09T10:52:28;95574.16;;;24.87;51.98
22047;BME280;11187;49.412;20.956;2023-07-09T10:55:44;95579.94;;;25.05;53.09
22047;BME280;11187;49.412;20.956;2023-07-09T10:58:34;95578.66;;;25.11;54.52
22047;BME280;11187;49.412;20.956;2023-07-09T11:01:37;95574.25;;;25.11;55.08
22047;BME280;11187;49.412;20.956;2023-07-09T11:04:40;95580.44;;;25.10;54.07
22047;BME280;11187;49.412;20.956;2023-07-09T11:07:55;95581.38;;;25.09;54.88
22047;BME280;11187;49.412;20.956;2023-07-09T11:10:35;95579.06;;;25.05;54.21
22047;BME280;11187;49.412;20.956;2023-07-09T11:13:28;95579.38;;;25.00;53.93
22047;BME280;11187;49.412;20.956;2023-07-09T11:16:30;95573.22;;;25.01;53.72
22047;BME280;11187;49.412;20.956;2023-07-09T11:19:26;95569.78;;;25.00;55.69
22047;BME280;11187;49.412;20.956;2023-07-09T11:22:12;95569.97;;;24.97;55.94
22047;BME280;11187;49.412;20.956;2023-07-09T11:25:12;95566.72;;;24.94;55.55
22047;BME280;11187;49.412;20.956;2023-07-09T11:27:52;95568.63;;;24.92;54.81
22047;BME280;11187;49.412;20.956;2023-07-09T11:30:50;95564.75;;;24.85;54.04
22047;BME280;11187;49.412;20.956;2023-07-09T11:33:28;95561.88;;;24.75;53.11
22047;BME280;11187;49.412;20.956;2023-07-09T11:36:29;95559.06;;;24.65;56.21
22047;BME280;11187;49.412;20.956;2023-07-09T11:39:22;95560.31;;;24.59;55.78
22047;BME280;11187;49.412;20.956;2023-07-09T11:45:08;95554.34;;;24.57;54.47
22047;BME280;11187;49.412;20.956;2023-07-09T11:48:25;95565.00;;;24.54;54.50
22047;BME280;11187;49.412;20.956;2023-07-09T11:51:31;95556.84;;;24.59;50.88
22047;BME280;11187;49.412;20.956;2023-07-09T11:54:11;95555.50;;;24.79;52.85
22047;BME280;11187;49.412;20.956;2023-07-09T11:56:59;95549.22;;;24.82;53.72
22047;BME280;11187;49.412;20.956;2023-07-09T11:59:38;95545.75;;;24.81;54.71
22047;BME280;11187;49.412;20.956;2023-07-09T12:02:31;95538.00;;;24.79;54.45
22047;BME280;11187;49.412;20.956;2023-07-09T12:05:06;95538.97;;;24.78;53.37
22047;BME280;11187;49.412;20.956;2023-07-09T12:07:55;95535.50;;;24.78;51.18
22047;BME280;11187;49.412;20.956;2023-07-09T12:10:33;95537.06;;;24.80;54.14
22047;BME280;11187;49.412;20.956;2023-07-09T12:13:20;95546.59;;;24.82;53.78
22047;BME280;11187;49.412;20.956;2023-07-09T12:15:54;95542.91;;;24.84;55.67
22047;BME280;11187;49.412;20.956;2023-07-09T12:18:40;95546.59;;;24.82;52.76
22047;BME280;11187;49.412;20.956;2023-07-09T12:21:14;95538.22;;;24.76;53.67
22047;BME280;11187;49.412;20.956;2023-07-09T12:24:01;95530.69;;;24.72;53.47
22047;BME280;11187;49.412;20.956;2023-07-09T12:26:35;95534.13;;;24.72;55.37
22047;BME280;11187;49.412;20.956;2023-07-09T12:29:26;95531.00;;;24.67;53.70
22047;BME280;11187;49.412;20.956;2023-07-09T12:32:03;95533.09;;;24.62;53.00
22047;BME280;11187;49.412;20.956;2023-07-09T12:34:54;95524.69;;;24.57;52.72
22047;BME280;11187;49.412;20.956;2023-07-09T12:37:30;95527.00;;;24.49;53.25
22047;BME280;11187;49.412;20.956;2023-07-09T12:40:21;95526.44;;;24.44;54.00
22047;BME280;11187;49.412;20.956;2023-07-09T12:42:56;95527.28;;;24.44;54.88
22047;BME280;11187;49.412;20.956;2023-07-09T12:45:51;95525.88;;;24.38;55.45
22047;BME280;11187;49.412;20.956;2023-07-09T12:48:45;95527.97;;;24.33;54.30
22047;BME280;11187;49.412;20.956;2023-07-09T12:51:25;95535.84;;;24.33;53.49
22047;BME280;11187;49.412;20.956;2023-07-09T12:54:20;95529.25;;;24.28;54.28
22047;BME280;11187;49.412;20.956;2023-07-09T12:56:56;95529.34;;;24.26;54.16
22047;BME280;11187;49.412;20.956;2023-07-09T12:59:51;95531.22;;;24.24;55.08
22047;BME280;11187;49.412;20.956;2023-07-09T13:02:52;95530.16;;;24.27;54.05
22047;BME280;11187;49.412;20.956;2023-07-09T13:06:02;95518.34;;;24.21;54.07
22047;BME280;11187;49.412;20.956;2023-07-09T13:08:59;95516.03;;;24.16;55.26
22047;BME280;11187;49.412;20.956;2023-07-09T13:11:57;95514.34;;;24.15;54.87
22047;BME280;11187;49.412;20.956;2023-07-09T13:14:31;95517.16;;;24.12;54.37
22047;BME280;11187;49.412;20.956;2023-07-09T13:17:18;95513.91;;;24.09;55.42
22047;BME280;11187;49.412;20.956;2023-07-09T13:19:51;95514.84;;;24.08;54.73
22047;BME280;11187;49.412;20.956;2023-07-09T13:22:39;95524.28;;;24.10;55.46
22047;BME280;11187;49.412;20.956;2023-07-09T13:25:20;95520.91;;;24.08;54.63
22047;BME280;11187;49.412;20.956;2023-07-09T13:28:28;95508.13;;;24.04;54.76
22047;BME280;11187;49.412;20.956;2023-07-09T13:31:11;95514.03;;;24.07;52.85
22047;BME280;11187;49.412;20.956;2023-07-09T13:33:59;95517.34;;;24.09;54.53
22047;BME280;11187;49.412;20.956;2023-07-09T13:36:32;95502.59;;;24.08;54.92
22047;BME280;11187;49.412;20.956;2023-07-09T13:39:26;95508.88;;;24.06;55.16
22047;BME280;11187;49.412;20.956;2023-07-09T13:42:20;95505.59;;;24.02;54.55
22047;BME280;11187;49.412;20.956;2023-07-09T13:44:53;95502.25;;;24.00;53.95
22047;BME280;11187;49.412;20.956;2023-07-09T13:47:47;95500.50;;;24.01;53.86
22047;BME280;11187;49.412;20.956;2023-07-09T13:50:22;95510.22;;;23.99;56.49
22047;BME280;11187;49.412;20.956;2023-07-09T13:53:14;95507.91;;;23.94;54.28
22047;BME280;11187;49.412;20.956;2023-07-09T13:55:47;95515.00;;;23.92;54.86
22047;BME280;11187;49.412;20.956;2023-07-09T13:58:42;95514.47;;;23.87;55.23
22047;BME280;11187;49.412;20.956;2023-07-09T14:01:37;95509.44;;;23.84;55.11
22047;BME280;11187;49.412;20.956;2023-07-09T14:04:15;95506.91;;;23.82;54.09
22047;BME280;11187;49.412;20.956;2023-07-09T14:07:02;95505.25;;;23.81;52.42
22047;BME280;11187;49.412;20.956;2023-07-09T14:09:38;95506.06;;;23.82;52.83
22047;BME280;11187;49.412;20.956;2023-07-09T14:12:32;95499.06;;;23.82;51.88
22047;BME280;11187;49.412;20.956;2023-07-09T14:15:26;95513.91;;;23.82;53.50
22047;BME280;11187;49.412;20.956;2023-07-09T14:18:21;95511.22;;;23.83;51.32
22047;BME280;11187;49.412;20.956;2023-07-09T14:20:56;95503.16;;;23.86;52.19
22047;BME280;11187;49.412;20.956;2023-07-09T14:23:50;95504.03;;;23.87;52.58
22047;BME280;11187;49.412;20.956;2023-07-09T14:26:44;95500.53;;;23.86;52.60
22047;BME280;11187;49.412;20.956;2023-07-09T14:29:17;95512.03;;;23.84;53.60
22047;BME280;11187;49.412;20.956;2023-07-09T14:32:30;95504.59;;;23.77;52.96
22047;BME280;11187;49.412;20.956;2023-07-09T14:35:25;95507.09;;;23.79;52.88
22047;BME280;11187;49.412;20.956;2023-07-09T14:38:24;95506.91;;;23.82;52.25
22047;BME280;11187;49.412;20.956;2023-07-09T14:41:22;95499.81;;;23.84;50.54
22047;BME280;11187;49.412;20.956;2023-07-09T14:44:25;95491.78;;;23.87;52.54
22047;BME280;11187;49.412;20.956;2023-07-09T14:47:20;95507.16;;;23.92;52.16